Time;durP1;ratioP1;P1;durP2;ratioP2;P2;SDS_P1;SDS_P2;PMS_P1;PMS_P2;Temp;Humidity;BMP_temperature;BMP_pressure;BME280_temperature;BME280_humidity;BME280_pressure;Samples;Min_cycle;Max_cycle;Signal;HPM_P1;HPM_P2
2023/08/24 00:02:03;;;;;;;5.78;5.00;;;25.80;55.90;;;;;;5036924;28;20222;-85
2023/08/24 00:04:30;;;;;;;5.38;4.88;;;25.80;55.90;;;;;;5020951;28;20646;-85
2023/08/24 00:06:58;;;;;;;5.97;5.22;;;25.80;55.90;;;;;;5036952;28;20194;-85
2023/08/24 00:09:25;;;;;;;5.15;4.65;;;25.70;55.70;;;;;;5037692;28;20260;-85
2023/08/24 00:11:52;;;;;;;5.55;4.82;;;25.70;55.70;;;;;;5037044;28;20309;-85
2023/08/24 00:14:20;;;;;;;6.32;5.05;;;25.70;55.70;;;;;;5053703;28;20281;-85
2023/08/24 00:16:47;;;;;;;5.95;4.68;;;25.70;55.70;;;;;;5054381;28;20191;-85
2023/08/24 00:19:16;;;;;;;5.53;5.03;;;25.70;55.70;;;;;;5020833;28;20215;-85
2023/08/24 00:21:42;;;;;;;5.43;4.93;;;25.70;55.70;;;;;;5037150;28;20218;-85
2023/08/24 00:24:10;;;;;;;5.70;5.10;;;25.70;55.80;;;;;;5054349;28;20218;-85
2023/08/24 00:26:37;;;;;;;7.07;4.90;;;25.70;55.70;;;;;;5038413;28;20207;-85
2023/08/24 00:29:04;;;;;;;5.35;4.75;;;25.70;55.70;;;;;;5077496;28;20179;-86
2023/08/24 00:31:30;;;;;;;5.60;5.00;;;25.70;55.80;;;;;;5060989;28;20202;-86
2023/08/24 00:33:59;;;;;;;6.05;4.80;;;25.70;55.70;;;;;;5046888;28;20640;-85
2023/08/24 00:36:28;;;;;;;5.68;5.18;;;25.70;55.80;;;;;;5037820;28;20195;-85
2023/08/24 00:38:55;;;;;;;6.05;5.45;;;25.60;55.50;;;;;;5036919;28;20661;-86
2023/08/24 00:41:24;;;;;;;6.13;5.18;;;25.60;56.40;;;;;;5036869;28;20218;-85
2023/08/24 00:43:53;;;;;;;5.38;4.88;;;25.60;55.70;;;;;;5036766;28;20197;-86
2023/08/24 00:46:20;;;;;;;6.13;5.10;;;25.60;55.80;;;;;;5037455;28;20262;-86
2023/08/24 00:48:47;;;;;;;5.68;5.18;;;25.60;55.70;;;;;;5040385;28;20244;-85
2023/08/24 00:51:15;;;;;;;6.35;4.90;;;25.60;55.80;;;;;;5040209;28;20219;-86
2023/08/24 00:53:43;;;;;;;6.90;5.13;;;25.60;55.70;;;;;;5023640;28;20198;-85
2023/08/24 00:56:12;;;;;;;5.75;5.13;;;25.60;55.70;;;;;;5056829;28;20195;-86
2023/08/24 00:58:39;;;;;;;5.18;4.70;;;25.50;55.60;;;;;;5056995;28;20219;-86
2023/08/24 01:01:06;;;;;;;8.68;4.72;;;25.60;55.80;;;;;;5039966;28;20211;-85
2023/08/24 01:03:34;;;;;;;5.30;4.80;;;25.50;55.60;;;;;;5040462;28;20195;-85
2023/08/24 01:06:00;;;;;;;6.40;5.47;;;25.60;56.00;;;;;;5042280;28;20541;-85
2023/08/24 01:08:28;;;;;;;5.53;5.03;;;25.50;55.90;;;;;;5058744;28;20195;-85
2023/08/24 01:11:00;;;;;;;5.90;5.03;;;25.50;55.90;;;;;;5059063;28;20685;-85
2023/08/24 01:13:31;;;;;;;5.68;4.68;;;25.50;55.80;;;;;;5041585;28;20194;-86
2023/08/24 01:16:02;;;;;;;5.30;4.80;;;25.50;55.70;;;;;;5058237;28;20249;-85
2023/08/24 01:18:29;;;;;;;4.85;4.45;;;25.50;55.80;;;;;;5041126;28;20560;-86
2023/08/24 01:20:56;;;;;;;6.10;4.85;;;25.40;55.90;;;;;;5041984;28;20219;-85
2023/08/24 01:23:33;;;;;;;4.82;4.38;;;25.50;55.90;;;;;;5041378;28;20225;-85
2023/08/24 01:26:06;;;;;;;5.10;4.65;;;25.50;56.00;;;;;;5041153;28;20203;-85
2023/08/24 01:28:33;;;;;;;5.30;4.80;;;25.50;55.70;;;;;;5041060;28;20199;-85
2023/08/24 01:31:00;;;;;;;5.40;4.90;;;25.40;55.80;;;;;;5039115;28;20233;-85
2023/08/24 01:33:27;;;;;;;4.97;4.57;;;25.40;55.90;;;;;;5056922;28;20191;-85
2023/08/24 01:35:55;;;;;;;5.32;4.90;;;25.40;55.90;;;;;;5041550;28;20245;-85
2023/08/24 01:38:22;;;;;;;5.78;4.60;;;25.40;55.90;;;;;;5041095;28;20203;-85
2023/08/24 01:40:54;;;;;;;5.13;4.68;;;25.40;55.90;;;;;;5041805;28;20325;-85
2023/08/24 01:43:26;;;;;;;5.13;4.32;;;25.40;55.90;;;;;;5041664;28;20653;-85
2023/08/24 01:45:53;;;;;;;4.93;4.38;;;25.40;55.90;;;;;;5039607;28;20294;-85
2023/08/24 01:48:20;;;;;;;5.13;4.47;;;25.40;55.90;;;;;;5039813;28;20187;-85
2023/08/24 01:50:47;;;;;;;5.22;4.72;;;25.30;55.80;;;;;;5039664;28;20223;-85
2023/08/24 01:53:14;;;;;;;5.53;5.03;;;25.30;55.80;;;;;;5039701;28;20249;-85
2023/08/24 01:55:42;;;;;;;5.93;4.38;;;25.30;56.00;;;;;;5039858;28;20712;-85
2023/08/24 01:58:08;;;;;;;5.00;4.60;;;25.30;56.10;;;;;;5039181;28;20244;-85
2023/08/24 02:00:36;;;;;;;4.80;4.30;;;25.30;56.00;;;;;;5039148;28;20223;-85
2023/08/24 02:03:04;;;;;;;4.60;4.20;;;25.30;56.00;;;;;;5039569;28;20340;-85
2023/08/24 02:05:31;;;;;;;4.82;4.43;;;25.30;56.10;;;;;;5039262;28;20610;-85
2023/08/24 02:07:59;;;;;;;5.15;4.65;;;25.30;56.10;;;;;;5039408;28;20199;-85
2023/08/24 02:10:27;;;;;;;5.70;4.82;;;25.30;56.10;;;;;;5039224;28;20215;-86
2023/08/24 02:12:54;;;;;;;5.25;4.75;;;25.30;56.10;;;;;;5056302;28;20226;-85
2023/08/24 02:15:21;;;;;;;4.88;4.47;;;25.30;56.30;;;;;;5039140;28;20281;-85
2023/08/24 02:17:49;;;;;;;4.63;4.22;;;25.30;56.80;;;;;;5040443;28;20195;-85
2023/08/24 02:20:16;;;;;;;5.10;4.65;;;25.30;56.30;;;;;;5039430;28;20268;-85
2023/08/24 02:22:43;;;;;;;5.05;4.65;;;25.20;56.10;;;;;;5058223;28;20195;-85
2023/08/24 02:25:11;;;;;;;5.53;3.92;;;25.30;56.40;;;;;;5045968;28;20182;-85
2023/08/24 02:27:38;;;;;;;5.40;4.78;;;25.20;56.20;;;;;;5062368;28;20182;-85
2023/08/24 02:30:07;;;;;;;5.10;4.60;;;25.20;56.40;;;;;;5058608;28;20237;-85
2023/08/24 02:32:34;;;;;;;5.82;4.80;;;25.20;56.30;;;;;;5047003;28;20203;-86
2023/08/24 02:35:03;;;;;;;5.00;4.50;;;25.10;56.30;;;;;;5039317;28;20222;-86
2023/08/24 02:37:31;;;;;;;5.43;4.70;;;25.20;56.40;;;;;;5044383;28;20203;-86
2023/08/24 02:39:58;;;;;;;4.75;4.35;;;25.10;56.30;;;;;;5060518;28;20211;-86
2023/08/24 02:42:26;;;;;;;5.00;4.60;;;25.10;56.20;;;;;;5043524;28;20258;-86
2023/08/24 02:44:55;;;;;;;5.40;4.90;;;25.20;56.40;;;;;;5059581;28;20196;-86
2023/08/24 02:47:22;;;;;;;4.80;4.40;;;25.20;56.30;;;;;;5042973;28;20199;-85
2023/08/24 02:49:50;;;;;;;4.90;4.50;;;25.10;56.30;;;;;;5026189;28;20279;-86
2023/08/24 02:52:18;;;;;;;4.55;4.22;;;25.20;56.50;;;;;;5041954;28;20215;-86
2023/08/24 02:54:45;;;;;;;5.15;4.72;;;25.20;56.60;;;;;;5041444;28;20202;-86
2023/08/24 02:57:12;;;;;;;4.85;4.45;;;25.10;56.50;;;;;;5041438;28;20203;-86
2023/08/24 02:59:43;;;;;;;4.90;4.47;;;25.10;56.50;;;;;;5058569;28;20241;-86
2023/08/24 03:02:10;;;;;;;4.43;4.13;;;25.10;56.50;;;;;;5057933;28;20292;-86
2023/08/24 03:04:37;;;;;;;4.35;4.05;;;25.10;56.60;;;;;;5041418;28;20294;-85
2023/08/24 03:07:07;;;;;;;4.90;4.50;;;25.10;56.70;;;;;;5042131;28;20195;-85
2023/08/24 03:09:36;;;;;;;5.47;4.97;;;25.10;56.50;;;;;;5057018;28;20196;-85
2023/08/24 03:12:04;;;;;;;6.07;4.72;;;25.10;56.90;;;;;;5040723;28;20218;-86
2023/08/24 03:14:32;;;;;;;5.50;4.40;;;25.10;56.90;;;;;;5040569;28;20191;-85
2023/08/24 03:17:00;;;;;;;6.47;4.50;;;25.10;56.90;;;;;;5040648;28;20553;-85
2023/08/24 03:19:27;;;;;;;4.95;4.55;;;25.10;56.80;;;;;;5040064;28;20294;-85
2023/08/24 03:21:55;;;;;;;5.43;4.93;;;25.10;56.90;;;;;;5056651;28;20223;-85
2023/08/24 03:24:22;;;;;;;4.90;4.38;;;25.10;56.90;;;;;;5037863;28;20191;-85
2023/08/24 03:26:51;;;;;;;4.65;4.25;;;25.20;56.80;;;;;;5021728;28;20201;-85
2023/08/24 03:29:18;;;;;;;4.93;4.53;;;25.30;56.50;;;;;;5038706;28;20199;-85
2023/08/24 03:31:46;;;;;;;5.20;4.50;;;25.30;56.40;;;;;;5054322;28;20227;-85
2023/08/24 03:34:13;;;;;;;4.78;4.35;;;25.30;56.30;;;;;;5038557;28;20573;-85
2023/08/24 03:36:40;;;;;;;5.20;4.70;;;25.30;56.20;;;;;;5037238;28;20227;-85
2023/08/24 03:39:07;;;;;;;4.40;4.00;;;25.30;56.20;;;;;;5053810;28;20190;-86
2023/08/24 03:41:34;;;;;;;5.25;4.50;;;25.30;56.30;;;;;;5037162;28;20708;-85
2023/08/24 03:44:04;;;;;;;4.80;4.38;;;25.30;56.30;;;;;;5037450;28;20222;-85
2023/08/24 03:46:30;;;;;;;4.90;4.40;;;25.30;56.30;;;;;;5037375;28;20191;-85
2023/08/24 03:48:58;;;;;;;5.13;4.65;;;25.30;56.40;;;;;;5037181;28;20546;-85
2023/08/24 03:51:25;;;;;;;4.40;4.10;;;25.30;56.30;;;;;;5053708;28;20214;-86
2023/08/24 03:53:55;;;;;;;4.75;4.22;;;25.30;56.30;;;;;;5053981;28;20206;-85
2023/08/24 03:56:22;;;;;;;4.90;4.50;;;25.30;56.50;;;;;;5037054;28;20191;-86
2023/08/24 03:58:50;;;;;;;4.97;4.53;;;25.30;56.40;;;;;;5037071;28;20206;-85
2023/08/24 04:01:19;;;;;;;4.80;4.40;;;25.30;56.50;;;;;;5053694;28;20230;-85
2023/08/24 04:03:46;;;;;;;5.20;4.80;;;25.30;56.40;;;;;;5055390;28;20306;-86
2023/08/24 04:06:14;;;;;;;5.45;4.43;;;25.30;56.40;;;;;;5037674;28;20230;-85
2023/08/24 04:08:43;;;;;;;4.75;4.35;;;25.30;56.50;;;;;;5061011;28;20182;-85
2023/08/24 04:11:10;;;;;;;6.55;4.55;;;25.30;56.50;;;;;;5077567;28;20219;-86
2023/08/24 04:13:37;;;;;;;4.80;4.40;;;25.30;56.40;;;;;;5061037;28;20244;-86
2023/08/24 04:16:04;;;;;;;5.03;4.63;;;25.30;56.40;;;;;;5041021;28;20207;-85
2023/08/24 04:18:33;;;;;;;4.97;4.50;;;25.30;56.40;;;;;;5036399;28;20198;-85
2023/08/24 04:21:00;;;;;;;4.35;3.95;;;25.20;56.50;;;;;;5037361;28;20650;-85
2023/08/24 04:23:28;;;;;;;4.97;4.47;;;25.30;56.50;;;;;;5040454;28;20192;-86
2023/08/24 04:25:55;;;;;;;4.50;4.10;;;25.20;56.60;;;;;;5057158;28;20195;-85
2023/08/24 04:28:23;;;;;;;4.50;4.10;;;25.20;56.60;;;;;;5040811;28;20266;-86
2023/08/24 04:30:51;;;;;;;4.78;4.32;;;25.20;56.60;;;;;;5040897;28;20211;-85
2023/08/24 04:33:18;;;;;;;4.90;4.47;;;25.20;56.60;;;;;;5040512;28;20638;-85
2023/08/24 04:35:48;;;;;;;5.13;4.50;;;25.20;56.80;;;;;;5024041;28;20544;-85
2023/08/24 04:38:15;;;;;;;5.03;4.63;;;25.20;56.70;;;;;;5041265;28;20202;-86
2023/08/24 04:40:52;;;;;;;6.20;4.43;;;25.20;56.70;;;;;;5040293;28;20262;-86
2023/08/24 04:43:20;;;;;;;4.60;4.20;;;25.20;56.80;;;;;;5040720;28;20199;-85
2023/08/24 04:45:48;;;;;;;4.65;4.35;;;25.20;56.80;;;;;;5040589;28;20226;-86
2023/08/24 04:48:16;;;;;;;5.32;4.82;;;25.20;56.80;;;;;;5040022;28;20574;-85
2023/08/24 04:50:43;;;;;;;4.90;4.50;;;25.20;56.80;;;;;;5039886;28;20222;-85
2023/08/24 04:53:12;;;;;;;4.80;4.38;;;25.20;56.90;;;;;;5056672;28;20591;-85
2023/08/24 04:55:40;;;;;;;4.70;4.20;;;25.20;56.90;;;;;;5040089;28;20248;-86
2023/08/24 04:58:08;;;;;;;4.80;4.40;;;25.20;57.10;;;;;;5040029;28;20221;-85
2023/08/24 05:00:35;;;;;;;5.45;4.50;;;25.20;57.20;;;;;;5040001;28;20310;-86
2023/08/24 05:03:02;;;;;;;4.90;4.40;;;25.10;57.00;;;;;;5040169;28;20195;-85
2023/08/24 05:05:30;;;;;;;4.55;4.15;;;25.10;57.10;;;;;;5040283;28;20195;-85
2023/08/24 05:07:57;;;;;;;4.38;3.97;;;25.10;57.10;;;;;;5040229;28;20202;-86
2023/08/24 05:10:26;;;;;;;4.80;4.40;;;25.10;57.20;;;;;;5057693;28;20217;-86
2023/08/24 05:12:53;;;;;;;5.40;4.25;;;25.10;57.20;;;;;;5041533;28;20221;-86
2023/08/24 05:15:20;;;;;;;4.70;4.20;;;25.10;57.20;;;;;;5041714;28;20653;-86
2023/08/24 05:17:48;;;;;;;4.72;4.32;;;25.10;57.30;;;;;;5041334;28;20249;-86
2023/08/24 05:20:16;;;;;;;4.75;4.35;;;25.10;57.30;;;;;;5040870;28;20217;-86
2023/08/24 05:22:43;;;;;;;5.05;4.18;;;25.10;57.30;;;;;;5041129;28;20547;-85
2023/08/24 05:25:10;;;;;;;4.88;4.32;;;25.10;57.30;;;;;;5040803;28;20223;-86
2023/08/24 05:27:40;;;;;;;4.85;4.45;;;25.10;57.30;;;;;;5041238;28;20266;-86
2023/08/24 05:30:08;;;;;;;4.10;3.80;;;25.10;57.30;;;;;;5057019;28;20222;-86
2023/08/24 05:32:38;;;;;;;4.55;4.03;;;25.10;57.30;;;;;;5039071;28;20573;-86
2023/08/24 05:35:06;;;;;;;4.88;4.43;;;25.20;57.40;;;;;;5057430;28;20192;-86
2023/08/24 05:37:33;;;;;;;4.40;4.00;;;25.20;57.30;;;;;;5040074;28;20196;-86
2023/08/24 05:40:01;;;;;;;4.55;4.15;;;25.20;57.40;;;;;;5040327;28;20219;-87
2023/08/24 05:42:28;;;;;;;4.75;4.35;;;25.20;57.30;;;;;;5057088;28;20198;-86
2023/08/24 05:44:57;;;;;;;4.43;4.03;;;25.20;57.30;;;;;;5057105;28;20225;-85
2023/08/24 05:47:24;;;;;;;5.10;4.35;;;25.30;57.40;;;;;;5039230;28;20602;-85
2023/08/24 05:49:51;;;;;;;4.50;4.20;;;25.30;57.30;;;;;;5039111;28;20213;-85
2023/08/24 05:52:18;;;;;;;4.53;4.13;;;25.30;57.50;;;;;;5056066;28;20226;-84
2023/08/24 05:54:45;;;;;;;5.05;4.60;;;25.30;57.40;;;;;;5056055;28;20229;-84
2023/08/24 05:57:12;;;;;;;4.70;4.30;;;25.30;57.50;;;;;;5039805;28;20724;-84
2023/08/24 05:59:39;;;;;;;4.40;4.00;;;25.30;57.50;;;;;;5039751;28;20293;-85
2023/08/24 06:02:08;;;;;;;5.05;4.32;;;25.30;57.50;;;;;;5039724;28;20635;-84
2023/08/24 06:04:35;;;;;;;4.40;4.00;;;25.30;57.50;;;;;;5039727;28;20207;-84
2023/08/24 06:07:04;;;;;;;4.70;4.20;;;25.30;57.50;;;;;;5039500;28;20195;-84
2023/08/24 06:09:31;;;;;;;5.07;4.57;;;25.30;57.50;;;;;;5039821;28;20268;-84
2023/08/24 06:11:58;;;;;;;4.40;4.00;;;25.30;57.50;;;;;;5039947;28;20215;-84
2023/08/24 06:14:26;;;;;;;4.82;4.35;;;25.30;57.40;;;;;;5057029;28;20301;-84
2023/08/24 06:16:54;;;;;;;5.70;4.63;;;25.30;57.30;;;;;;5039336;28;20195;-84
2023/08/24 06:19:22;;;;;;;5.30;4.63;;;25.40;57.40;;;;;;5056833;28;20187;-84
2023/08/24 06:21:49;;;;;;;4.78;4.32;;;25.40;57.40;;;;;;5040605;28;20222;-84
2023/08/24 06:24:16;;;;;;;5.13;4.53;;;25.40;57.40;;;;;;5043886;28;20206;-84
2023/08/24 06:26:44;;;;;;;5.25;4.57;;;25.40;57.40;;;;;;5060500;28;20728;-84
2023/08/24 06:29:11;;;;;;;4.93;4.50;;;25.60;57.40;;;;;;5043225;28;20220;-85
2023/08/24 06:31:38;;;;;;;5.00;4.60;;;25.60;57.20;;;;;;5041154;28;20210;-86
2023/08/24 06:34:06;;;;;;;5.55;4.95;;;25.70;56.90;;;;;;5041437;28;20212;-86
2023/08/24 06:36:34;;;;;;;4.88;4.47;;;25.80;56.70;;;;;;5050791;28;20596;-86
2023/08/24 06:39:04;;;;;;;4.88;4.40;;;25.90;56.50;;;;;;5053989;28;20199;-86
2023/08/24 06:41:34;;;;;;;5.15;4.70;;;26.00;56.30;;;;;;5049818;28;20348;-86
2023/08/24 06:44:07;;;;;;;5.53;5.03;;;26.00;56.20;;;;;;5052541;28;20171;-85
2023/08/24 06:46:34;;;;;;;5.15;4.35;;;26.00;56.20;;;;;;5061250;28;20224;-86
2023/08/24 06:49:01;;;;;;;5.43;4.93;;;26.10;56.20;;;;;;5042467;28;20216;-86
2023/08/24 06:51:29;;;;;;;5.25;4.75;;;26.00;56.10;;;;;;5040410;28;20670;-86
2023/08/24 06:53:57;;;;;;;4.90;4.50;;;26.00;56.20;;;;;;5040348;28;20613;-86
2023/08/24 06:56:24;;;;;;;5.53;4.63;;;26.10;56.20;;;;;;5039809;28;20217;-86
2023/08/24 06:58:52;;;;;;;5.80;4.80;;;26.00;56.20;;;;;;5040066;28;20677;-85
2023/08/24 07:01:19;;;;;;;5.28;4.72;;;26.10;56.30;;;;;;5041041;28;20574;-83
2023/08/24 07:03:46;;;;;;;6.15;4.55;;;26.00;56.20;;;;;;5042223;28;20289;-83
2023/08/24 07:06:13;;;;;;;5.30;4.78;;;26.00;56.20;;;;;;5042525;28;20264;-84
2023/08/24 07:08:40;;;;;;;5.43;4.93;;;26.10;56.30;;;;;;5042064;28;20194;-84
2023/08/24 07:11:09;;;;;;;5.50;5.00;;;26.00;56.20;;;;;;5042763;28;20657;-84
2023/08/24 07:13:36;;;;;;;9.23;5.68;;;26.00;56.20;;;;;;5041010;28;20198;-84
2023/08/24 07:16:04;;;;;;;6.00;5.40;;;26.00;56.20;;;;;;5057324;28;20205;-84
2023/08/24 07:18:31;;;;;;;7.05;5.38;;;26.00;56.00;;;;;;5040254;28;20673;-84
2023/08/24 07:20:58;;;;;;;8.65;5.60;;;26.00;56.60;;;;;;5039918;28;20255;-84
2023/08/24 07:23:25;;;;;;;8.07;5.78;;;26.00;56.20;;;;;;5057697;28;20198;-84
2023/08/24 07:25:52;;;;;;;7.35;5.40;;;26.10;56.30;;;;;;5042040;28;20226;-84
2023/08/24 07:28:21;;;;;;;7.53;5.43;;;26.20;56.30;;;;;;5057224;28;20198;-84
2023/08/24 07:30:48;;;;;;;6.25;5.40;;;26.30;56.10;;;;;;5041155;28;20214;-84
2023/08/24 07:33:15;;;;;;;7.50;6.07;;;26.30;55.90;;;;;;5041392;28;20203;-84
2023/08/24 07:35:42;;;;;;;9.18;5.65;;;26.40;55.80;;;;;;5029244;28;20198;-84
2023/08/24 07:38:09;;;;;;;8.00;6.15;;;26.40;55.80;;;;;;5037626;28;20198;-84
2023/08/24 07:40:37;;;;;;;10.63;6.80;;;26.30;55.70;;;;;;5036514;28;20276;-83
2023/08/24 07:43:04;;;;;;;10.73;6.90;;;26.30;55.50;;;;;;5048415;28;20320;-83
2023/08/24 07:45:33;;;;;;;10.55;6.57;;;26.40;55.90;;;;;;5055484;28;20206;-83
2023/08/24 07:48:00;;;;;;;10.40;6.78;;;26.30;56.20;;;;;;5037740;28;20213;-83
2023/08/24 07:50:27;;;;;;;9.55;6.65;;;26.30;55.50;;;;;;5058824;28;20218;-83
2023/08/24 07:52:53;;;;;;;9.27;6.32;;;26.40;55.50;;;;;;5060620;28;20175;-84
2023/08/24 07:55:21;;;;;;;9.80;6.65;;;26.50;55.60;;;;;;5063687;28;20289;-83
2023/08/24 07:57:48;;;;;;;12.52;6.63;;;26.60;55.60;;;;;;5053570;28;20190;-83
2023/08/24 08:00:16;;;;;;;9.07;6.97;;;26.80;55.00;;;;;;5036900;28;20744;-83
2023/08/24 08:02:44;;;;;;;11.93;7.28;;;26.90;54.70;;;;;;5036693;28;20245;-83
2023/08/24 08:05:12;;;;;;;11.13;7.55;;;27.00;54.00;;;;;;5036767;28;20195;-83
2023/08/24 08:07:39;;;;;;;11.13;6.45;;;27.10;54.20;;;;;;5053764;28;20201;-83
2023/08/24 08:10:07;;;;;;;10.10;6.32;;;27.20;54.10;;;;;;5037017;28;20595;-84
2023/08/24 08:12:34;;;;;;;9.90;6.18;;;27.30;54.00;;;;;;5038532;28;20191;-83
2023/08/24 08:15:01;;;;;;;9.48;5.97;;;27.40;53.90;;;;;;5038785;28;20191;-83
2023/08/24 08:17:30;;;;;;;7.82;5.50;;;27.50;53.50;;;;;;5039880;28;20205;-83
2023/08/24 08:19:58;;;;;;;7.22;5.57;;;27.60;53.10;;;;;;5038010;28;20194;-83
2023/08/24 08:22:26;;;;;;;10.40;5.57;;;27.60;52.60;;;;;;5037577;28;20242;-83
2023/08/24 08:24:54;;;;;;;6.97;5.05;;;27.70;52.50;;;;;;5036793;28;20240;-82
2023/08/24 08:27:21;;;;;;;7.43;5.55;;;27.70;52.70;;;;;;5037747;28;20510;-84
2023/08/24 08:29:48;;;;;;;6.65;4.95;;;27.70;52.60;;;;;;5036471;28;20191;-83
2023/08/24 08:32:16;;;;;;;6.72;5.20;;;27.70;52.30;;;;;;5053759;28;20246;-83
2023/08/24 08:34:43;;;;;;;6.47;5.10;;;27.80;52.00;;;;;;5036588;28;20574;-83
2023/08/24 08:37:12;;;;;;;6.22;4.60;;;27.90;51.50;;;;;;5037378;28;20206;-82
2023/08/24 08:39:40;;;;;;;7.25;4.82;;;28.10;51.30;;;;;;5050196;28;20613;-82
2023/08/24 08:42:11;;;;;;;7.15;5.05;;;28.20;51.10;;;;;;5033805;28;20211;-82
2023/08/24 08:44:39;;;;;;;5.40;4.90;;;28.40;50.60;;;;;;5035282;28;20198;-82
2023/08/24 08:47:08;;;;;;;6.80;4.63;;;28.40;50.20;;;;;;5036693;28;20199;-82
2023/08/24 08:49:36;;;;;;;6.63;5.10;;;28.60;50.20;;;;;;5036212;28;20203;-82
2023/08/24 08:52:04;;;;;;;6.18;4.70;;;28.60;50.10;;;;;;5026484;28;20218;-82
2023/08/24 08:54:33;;;;;;;5.97;4.68;;;28.70;50.10;;;;;;5054162;28;20306;-82
2023/08/24 08:57:01;;;;;;;5.50;5.00;;;28.70;50.30;;;;;;5037472;28;20199;-82
2023/08/24 08:59:30;;;;;;;5.32;4.82;;;28.60;50.20;;;;;;5057091;28;20195;-82
2023/08/24 09:01:57;;;;;;;9.43;5.55;;;28.70;49.60;;;;;;5046624;28;20215;-82
2023/08/24 09:04:25;;;;;;;7.35;4.95;;;28.70;49.90;;;;;;5070146;28;20256;-82
2023/08/24 09:06:52;;;;;;;14.05;5.05;;;28.80;50.00;;;;;;5053066;28;20218;-81
2023/08/24 09:09:19;;;;;;;12.43;5.68;;;28.90;49.90;;;;;;5051228;28;20195;-82
2023/08/24 09:11:48;;;;;;;7.03;5.32;;;28.90;50.10;;;;;;5060195;28;20712;-83
2023/08/24 09:14:15;;;;;;;6.72;5.00;;;29.00;49.20;;;;;;5043239;28;20194;-83
2023/08/24 09:16:42;;;;;;;10.60;6.05;;;29.00;49.10;;;;;;5059542;28;20668;-82
2023/08/24 09:19:12;;;;;;;9.82;5.50;;;29.00;49.70;;;;;;5042841;28;20202;-83
2023/08/24 09:21:39;;;;;;;8.38;5.50;;;29.00;49.90;;;;;;5059408;28;20215;-83
2023/08/24 09:24:07;;;;;;;11.27;5.30;;;29.10;49.60;;;;;;5042784;28;20298;-83
2023/08/24 09:26:35;;;;;;;11.35;5.50;;;29.10;49.60;;;;;;5043288;28;20202;-84
2023/08/24 09:29:13;;;;;;;7.07;4.88;;;29.20;49.10;;;;;;5043111;28;20241;-84
2023/08/24 09:31:40;;;;;;;5.63;4.72;;;29.20;48.70;;;;;;5043204;28;20268;-84
2023/08/24 09:34:07;;;;;;;6.32;4.90;;;29.30;48.40;;;;;;5042952;28;20202;-84
2023/08/24 09:36:34;;;;;;;9.57;5.03;;;29.40;48.60;;;;;;5043213;28;20210;-85
2023/08/24 09:39:04;;;;;;;6.05;4.88;;;29.40;48.50;;;;;;5026376;28;20201;-84
2023/08/24 09:41:41;;;;;;;5.20;4.55;;;29.50;48.50;;;;;;5043037;28;20210;-84
2023/08/24 09:44:10;;;;;;;5.95;4.80;;;29.50;48.40;;;;;;5058678;28;20202;-84
2023/08/24 09:46:38;;;;;;;6.00;4.50;;;29.60;48.10;;;;;;5058110;28;20199;-85
2023/08/24 09:49:06;;;;;;;5.28;4.80;;;29.70;48.10;;;;;;5023395;28;20206;-84
2023/08/24 09:51:34;;;;;;;5.50;4.60;;;29.70;48.10;;;;;;5039653;28;20211;-83
2023/08/24 09:54:02;;;;;;;5.60;4.45;;;29.70;48.10;;;;;;5039606;28;20202;-83
2023/08/24 09:56:30;;;;;;;5.80;4.63;;;29.80;48.10;;;;;;5039848;28;20191;-83
2023/08/24 09:58:56;;;;;;;5.50;4.43;;;29.80;48.10;;;;;;5039371;28;20199;-83
2023/08/24 10:01:26;;;;;;;5.90;4.78;;;29.80;48.10;;;;;;5056238;28;20258;-83
2023/08/24 10:03:53;;;;;;;6.47;4.57;;;29.90;48.20;;;;;;5039574;28;20606;-83
2023/08/24 10:06:22;;;;;;;5.10;4.60;;;29.80;48.10;;;;;;5038948;28;20225;-83
2023/08/24 10:08:55;;;;;;;5.28;4.75;;;29.90;48.20;;;;;;5039829;28;20244;-84
2023/08/24 10:11:25;;;;;;;4.93;4.20;;;29.90;48.20;;;;;;5055688;28;20219;-82
2023/08/24 10:13:57;;;;;;;5.57;4.50;;;29.90;48.20;;;;;;5039597;28;20208;-83
2023/08/24 10:16:26;;;;;;;4.47;4.18;;;29.90;48.80;;;;;;5055880;28;20183;-83
2023/08/24 10:18:53;;;;;;;4.70;4.30;;;30.00;48.30;;;;;;5039127;28;20198;-84
2023/08/24 10:21:20;;;;;;;6.70;4.80;;;29.90;48.20;;;;;;5039750;28;20322;-84
2023/08/24 10:23:47;;;;;;;4.72;4.32;;;29.90;48.20;;;;;;5038979;28;20672;-83
2023/08/24 10:26:13;;;;;;;6.65;4.70;;;29.90;48.50;;;;;;5027916;28;20199;-83
2023/08/24 10:28:41;;;;;;;5.15;4.65;;;29.90;48.80;;;;;;5055919;28;20201;-84
2023/08/24 10:31:08;;;;;;;5.45;4.63;;;29.90;48.80;;;;;;5039189;28;20219;-83
2023/08/24 10:33:36;;;;;;;5.13;4.63;;;29.90;49.00;;;;;;5040212;28;20199;-83
2023/08/24 10:36:06;;;;;;;7.40;4.53;;;29.90;49.10;;;;;;5040264;28;20225;-84
2023/08/24 10:38:36;;;;;;;5.32;4.82;;;29.90;49.00;;;;;;5040476;28;20207;-83
2023/08/24 10:41:03;;;;;;;5.78;4.47;;;29.90;49.00;;;;;;5039020;28;20246;-83
2023/08/24 10:43:31;;;;;;;6.05;4.55;;;29.90;48.90;;;;;;5039260;28;20218;-83
2023/08/24 10:45:59;;;;;;;5.32;4.47;;;29.90;48.90;;;;;;5039151;28;20297;-83
2023/08/24 10:48:26;;;;;;;5.45;4.38;;;29.90;49.00;;;;;;5038472;28;20203;-83
2023/08/24 10:51:20;;;;;;;4.97;4.40;;;29.90;49.00;;;;;;5054906;28;20340;-83
2023/08/24 10:53:48;;;;;;;5.07;4.60;;;29.80;49.00;;;;;;5037980;28;20252;-83
2023/08/24 10:56:15;;;;;;;5.40;4.90;;;29.80;49.10;;;;;;5054932;28;20238;-83
2023/08/24 10:58:43;;;;;;;6.28;4.70;;;29.80;49.20;;;;;;5037995;28;20293;-83
2023/08/24 11:01:16;;;;;;;5.25;4.40;;;29.80;49.20;;;;;;5039226;28;20214;-83
2023/08/24 11:03:46;;;;;;;4.90;3.85;;;29.80;49.30;;;;;;5038251;28;20222;-83
2023/08/24 11:06:22;;;;;;;4.80;4.32;;;29.70;49.30;;;;;;5038139;28;20191;-84
2023/08/24 11:08:49;;;;;;;4.57;4.18;;;29.70;49.30;;;;;;5055078;28;20202;-83
2023/08/24 11:11:20;;;;;;;4.97;4.43;;;29.70;49.40;;;;;;5054636;28;20218;-83
2023/08/24 11:14:15;;;;;;;4.40;4.00;;;29.70;49.40;;;;;;5055885;28;20191;-84
2023/08/24 11:16:43;;;;;;;4.53;4.13;;;29.70;49.50;;;;;;5037942;28;20649;-83
2023/08/24 11:19:11;;;;;;;5.18;4.75;;;29.70;49.50;;;;;;5037720;28;20191;-84
2023/08/24 11:21:39;;;;;;;5.03;4.53;;;29.70;49.50;;;;;;5037826;28;20219;-84
2023/08/24 11:24:06;;;;;;;5.65;4.50;;;29.70;49.60;;;;;;5038156;28;20355;-83
2023/08/24 11:26:33;;;;;;;4.45;4.10;;;29.60;49.60;;;;;;5041141;28;20198;-83
2023/08/24 11:29:00;;;;;;;4.90;4.43;;;29.60;49.60;;;;;;5058119;28;20247;-83
2023/08/24 11:31:27;;;;;;;5.20;4.28;;;29.60;49.70;;;;;;5056749;28;20214;-84
2023/08/24 11:33:55;;;;;;;4.28;3.88;;;29.60;49.70;;;;;;5040768;28;20649;-83
2023/08/24 11:36:23;;;;;;;4.72;4.32;;;29.60;49.80;;;;;;5057551;28;20242;-83
2023/08/24 11:38:53;;;;;;;4.60;4.28;;;29.60;49.90;;;;;;5039520;28;20835;-84
2023/08/24 11:41:21;;;;;;;4.60;4.20;;;29.60;49.90;;;;;;5042444;28;20218;-84
2023/08/24 11:43:50;;;;;;;4.50;4.10;;;29.60;49.90;;;;;;5061262;28;20211;-82
2023/08/24 11:46:17;;;;;;;4.65;4.10;;;29.60;49.90;;;;;;5060977;28;20182;-84
2023/08/24 11:48:45;;;;;;;4.15;3.85;;;29.60;50.00;;;;;;5046015;28;20205;-84
2023/08/24 11:51:13;;;;;;;4.47;4.07;;;29.60;50.00;;;;;;5037606;28;20254;-84
2023/08/24 11:53:41;;;;;;;4.70;3.88;;;29.50;50.00;;;;;;5021417;28;20197;-84
2023/08/24 11:56:12;;;;;;;4.43;4.03;;;29.60;50.10;;;;;;5037627;28;20210;-83
2023/08/24 11:58:39;;;;;;;6.07;4.18;;;29.60;50.10;;;;;;5037309;28;20207;-83
2023/08/24 12:01:06;;;;;;;4.30;3.72;;;29.50;50.00;;;;;;5054022;28;20309;-83
2023/08/24 12:03:33;;;;;;;4.47;4.07;;;29.60;50.10;;;;;;5054644;28;20285;-83
2023/08/24 12:06:01;;;;;;;4.72;4.00;;;29.60;50.10;;;;;;5037023;28;20202;-83
2023/08/24 12:08:28;;;;;;;4.55;4.15;;;29.50;50.10;;;;;;5037229;28;20201;-83
2023/08/24 12:10:55;;;;;;;4.07;3.65;;;29.60;50.20;;;;;;5020907;28;20214;-84
2023/08/24 12:13:23;;;;;;;4.03;3.72;;;29.60;50.20;;;;;;5038107;28;20195;-84
2023/08/24 12:15:51;;;;;;;4.20;3.80;;;29.50;50.20;;;;;;5043007;28;20223;-83
2023/08/24 12:18:19;;;;;;;4.47;4.05;;;29.60;50.30;;;;;;5056965;28;20202;-83
2023/08/24 12:20:46;;;;;;;4.05;3.60;;;29.60;50.30;;;;;;5038193;28;20226;-84
2023/08/24 12:23:13;;;;;;;4.40;4.00;;;29.50;50.20;;;;;;5037806;28;20214;-83
2023/08/24 12:25:43;;;;;;;4.05;3.75;;;29.60;50.30;;;;;;5036994;28;20260;-83
2023/08/24 12:28:11;;;;;;;4.40;4.00;;;29.50;50.40;;;;;;5053842;28;20722;-83
2023/08/24 12:30:46;;;;;;;4.70;4.30;;;29.50;50.40;;;;;;5037023;28;20222;-83
2023/08/24 12:33:23;;;;;;;4.10;3.80;;;29.50;50.40;;;;;;5037199;28;20201;-82
2023/08/24 12:35:50;;;;;;;4.43;4.03;;;29.50;50.50;;;;;;5037852;28;20198;-83
2023/08/24 12:38:17;;;;;;;4.30;3.90;;;29.50;50.60;;;;;;5054793;28;20213;-83
2023/08/24 12:40:43;;;;;;;4.40;4.00;;;29.50;50.60;;;;;;5038502;28;20214;-83
2023/08/24 12:43:10;;;;;;;4.00;3.70;;;29.50;51.30;;;;;;5041555;28;20719;-83
2023/08/24 12:45:38;;;;;;;4.25;3.95;;;29.50;50.70;;;;;;5059491;28;20203;-83
2023/08/24 12:48:07;;;;;;;4.22;3.80;;;29.50;50.70;;;;;;5042313;28;20199;-83
2023/08/24 12:50:34;;;;;;;3.95;3.65;;;29.50;50.70;;;;;;5059223;28;20226;-84